sensor_id;sensor_type;location;lat;lon;timestamp;pressure;altitude;pressure_sealevel;temperature;humidity
54882;BME280;40775;51.448;4.742;2022-11-13T00:01:17;102621.47;;;9.31;95.00
54882;BME280;40775;51.448;4.742;2022-11-13T00:03:44;102614.34;;;9.28;94.85
54882;BME280;40775;51.448;4.742;2022-11-13T00:06:13;102616.06;;;9.28;95.22
54882;BME280;40775;51.448;4.742;2022-11-13T00:08:40;102613.13;;;9.22;94.87
54882;BME280;40775;51.448;4.742;2022-11-13T00:11:13;102609.69;;;9.23;94.79
54882;BME280;40775;51.448;4.742;2022-11-13T00:13:45;102604.84;;;9.14;94.75
54882;BME280;40775;51.448;4.742;2022-11-13T00:16:16;102599.88;;;9.19;94.68
54882;BME280;40775;51.448;4.742;2022-11-13T00:18:44;102602.00;;;9.10;94.45
54882;BME280;40775;51.448;4.742;2022-11-13T00:21:23;102594.28;;;9.13;94.62
54882;BME280;40775;51.448;4.742;2022-11-13T00:23:50;102613.03;;;9.20;94.49
54882;BME280;40775;51.448;4.742;2022-11-13T00:26:24;102601.66;;;9.20;95.01
54882;BME280;40775;51.448;4.742;2022-11-13T00:28:57;102599.53;;;9.13;94.64
54882;BME280;40775;51.448;4.742;2022-11-13T00:31:25;102598.63;;;9.12;94.48
54882;BME280;40775;51.448;4.742;2022-11-13T00:33:53;102594.22;;;9.11;94.71
54882;BME280;40775;51.448;4.742;2022-11-13T00:36:40;102587.75;;;9.05;94.16
54882;BME280;40775;51.448;4.742;2022-11-13T00:39:08;102580.69;;;9.04;94.23
54882;BME280;40775;51.448;4.742;2022-11-13T00:41:35;102572.31;;;8.94;94.25
54882;BME280;40775;51.448;4.742;2022-11-13T00:44:02;102583.06;;;8.99;94.08
54882;BME280;40775;51.448;4.742;2022-11-13T00:46:29;102584.78;;;8.98;94.05
54882;BME280;40775;51.448;4.742;2022-11-13T00:48:57;102577.25;;;8.88;94.07
54882;BME280;40775;51.448;4.742;2022-11-13T00:51:24;102572.72;;;8.86;94.16
54882;BME280;40775;51.448;4.742;2022-11-13T00:53:51;102576.41;;;8.89;94.13
54882;BME280;40775;51.448;4.742;2022-11-13T00:56:18;102572.50;;;8.81;93.64
54882;BME280;40775;51.448;4.742;2022-11-13T00:58:45;102571.25;;;8.91;93.74
54882;BME280;40775;51.448;4.742;2022-11-13T01:01:15;102566.03;;;8.91;93.81
54882;BME280;40775;51.448;4.742;2022-11-13T01:03:43;102562.75;;;8.95;94.09
54882;BME280;40775;51.448;4.742;2022-11-13T01:06:21;102568.72;;;8.92;93.89
54882;BME280;40775;51.448;4.742;2022-11-13T01:08:52;102575.69;;;8.92;93.90
54882;BME280;40775;51.448;4.742;2022-11-13T01:11:23;102563.00;;;8.83;93.96
54882;BME280;40775;51.448;4.742;2022-11-13T01:13:51;102552.81;;;8.73;93.46
54882;BME280;40775;51.448;4.742;2022-11-13T01:16:22;102559.03;;;8.75;93.75
54882;BME280;40775;51.448;4.742;2022-11-13T01:18:52;102556.41;;;8.75;93.86
54882;BME280;40775;51.448;4.742;2022-11-13T01:21:22;102557.38;;;8.61;93.45
54882;BME280;40775;51.448;4.742;2022-11-13T01:23:50;102561.06;;;8.64;93.08
54882;BME280;40775;51.448;4.742;2022-11-13T01:26:24;102552.22;;;8.62;93.18
54882;BME280;40775;51.448;4.742;2022-11-13T01:28:52;102548.06;;;8.66;93.36
54882;BME280;40775;51.448;4.742;2022-11-13T01:31:23;102549.63;;;8.62;93.15
54882;BME280;40775;51.448;4.742;2022-11-13T01:33:51;102538.88;;;8.58;93.28
54882;BME280;40775;51.448;4.742;2022-11-13T01:36:25;102539.38;;;8.67;93.30
54882;BME280;40775;51.448;4.742;2022-11-13T01:38:53;102536.44;;;8.61;93.43
54882;BME280;40775;51.448;4.742;2022-11-13T01:41:30;102537.44;;;8.63;93.36
54882;BME280;40775;51.448;4.742;2022-11-13T01:43:59;102525.16;;;8.62;92.96
54882;BME280;40775;51.448;4.742;2022-11-13T01:46:39;102518.69;;;8.55;93.06
54882;BME280;40775;51.448;4.742;2022-11-13T01:51:49;102506.94;;;8.49;93.31
54882;BME280;40775;51.448;4.742;2022-11-13T01:54:21;102498.72;;;8.57;93.38
54882;BME280;40775;51.448;4.742;2022-11-13T01:56:51;102510.25;;;8.61;93.38
54882;BME280;40775;51.448;4.742;2022-11-13T01:59:23;102505.50;;;8.54;93.32
54882;BME280;40775;51.448;4.742;2022-11-13T02:01:52;102503.56;;;8.50;93.05
54882;BME280;40775;51.448;4.742;2022-11-13T02:04:20;102503.34;;;8.47;93.33
54882;BME280;40775;51.448;4.742;2022-11-13T02:06:59;102493.38;;;8.40;92.82
54882;BME280;40775;51.448;4.742;2022-11-13T02:09:41;102487.47;;;8.44;92.85
54882;BME280;40775;51.448;4.742;2022-11-13T02:12:16;102486.50;;;8.42;93.21
54882;BME280;40775;51.448;4.742;2022-11-13T02:14:49;102475.47;;;8.47;93.31
54882;BME280;40775;51.448;4.742;2022-11-13T02:17:32;102478.72;;;8.43;93.21
54882;BME280;40775;51.448;4.742;2022-11-13T02:20:04;102476.34;;;8.48;93.48
54882;BME280;40775;51.448;4.742;2022-11-13T02:22:42;102474.75;;;8.50;93.53
54882;BME280;40775;51.448;4.742;2022-11-13T02:25:11;102462.72;;;8.53;93.64
54882;BME280;40775;51.448;4.742;2022-11-13T02:27:48;102465.75;;;8.61;93.96
54882;BME280;40775;51.448;4.742;2022-11-13T02:30:29;102454.53;;;8.63;93.85
54882;BME280;40775;51.448;4.742;2022-11-13T02:32:58;102449.47;;;8.66;94.14
54882;BME280;40775;51.448;4.742;2022-11-13T02:35:34;102449.78;;;8.73;94.34
54882;BME280;40775;51.448;4.742;2022-11-13T02:38:04;102443.50;;;8.69;94.01
54882;BME280;40775;51.448;4.742;2022-11-13T02:40:32;102439.06;;;8.68;94.05
54882;BME280;40775;51.448;4.742;2022-11-13T02:42:59;102453.72;;;8.64;93.97
54882;BME280;40775;51.448;4.742;2022-11-13T02:45:27;102436.06;;;8.60;93.70
54882;BME280;40775;51.448;4.742;2022-11-13T02:47:54;102444.22;;;8.66;93.78
54882;BME280;40775;51.448;4.742;2022-11-13T02:50:21;102455.44;;;8.64;93.92
54882;BME280;40775;51.448;4.742;2022-11-13T02:52:48;102444.47;;;8.71;94.09
54882;BME280;40775;51.448;4.742;2022-11-13T02:55:15;102443.19;;;8.63;93.89
54882;BME280;40775;51.448;4.742;2022-11-13T02:57:43;102450.78;;;8.58;93.96
54882;BME280;40775;51.448;4.742;2022-11-13T03:00:11;102434.91;;;8.55;93.63
54882;BME280;40775;51.448;4.742;2022-11-13T03:02:40;102441.06;;;8.56;93.80
54882;BME280;40775;51.448;4.742;2022-11-13T03:05:08;102440.53;;;8.47;93.25
54882;BME280;40775;51.448;4.742;2022-11-13T03:07:39;102430.97;;;8.47;93.59
54882;BME280;40775;51.448;4.742;2022-11-13T03:10:09;102432.44;;;8.42;93.13
54882;BME280;40775;51.448;4.742;2022-11-13T03:12:37;102428.84;;;8.40;93.54
54882;BME280;40775;51.448;4.742;2022-11-13T03:15:06;102430.31;;;8.35;93.28
54882;BME280;40775;51.448;4.742;2022-11-13T03:17:34;102428.50;;;8.34;93.56
54882;BME280;40775;51.448;4.742;2022-11-13T03:20:03;102418.50;;;8.27;93.50
54882;BME280;40775;51.448;4.742;2022-11-13T03:22:30;102425.16;;;8.36;93.47
54882;BME280;40775;51.448;4.742;2022-11-13T03:24:58;102426.88;;;8.36;93.60
54882;BME280;40775;51.448;4.742;2022-11-13T03:27:25;102428.22;;;8.29;93.33
54882;BME280;40775;51.448;4.742;2022-11-13T03:29:52;102416.22;;;8.33;93.37
54882;BME280;40775;51.448;4.742;2022-11-13T03:32:19;102417.94;;;8.32;93.77
54882;BME280;40775;51.448;4.742;2022-11-13T03:34:46;102416.13;;;8.31;93.63
54882;BME280;40775;51.448;4.742;2022-11-13T03:37:13;102415.00;;;8.26;93.30
54882;BME280;40775;51.448;4.742;2022-11-13T03:39:40;102414.09;;;8.26;93.68
54882;BME280;40775;51.448;4.742;2022-11-13T03:42:07;102410.66;;;8.27;93.46
54882;BME280;40775;51.448;4.742;2022-11-13T03:44:34;102404.53;;;8.26;93.29
54882;BME280;40775;51.448;4.742;2022-11-13T03:47:00;102408.13;;;8.28;93.62
54882;BME280;40775;51.448;4.742;2022-11-13T03:49:27;102415.16;;;8.29;93.25
54882;BME280;40775;51.448;4.742;2022-11-13T03:51:54;102421.28;;;8.30;93.34
54882;BME280;40775;51.448;4.742;2022-11-13T03:54:21;102419.56;;;8.30;93.17
54882;BME280;40775;51.448;4.742;2022-11-13T03:56:49;102410.91;;;8.31;93.35
54882;BME280;40775;51.448;4.742;2022-11-13T03:59:16;102409.19;;;8.32;93.65
54882;BME280;40775;51.448;4.742;2022-11-13T04:01:43;102414.53;;;8.33;93.36
54882;BME280;40775;51.448;4.742;2022-11-13T04:04:10;102413.03;;;8.22;92.96
54882;BME280;40775;51.448;4.742;2022-11-13T04:06:37;102421.28;;;8.30;93.18
54882;BME280;40775;51.448;4.742;2022-11-13T04:09:04;102419.03;;;8.21;93.10
54882;BME280;40775;51.448;4.742;2022-11-13T04:11:31;102414.13;;;8.11;92.72
54882;BME280;40775;51.448;4.742;2022-11-13T04:13:58;102417.56;;;8.10;92.68
54882;BME280;40775;51.448;4.742;2022-11-13T04:16:25;102419.44;;;8.13;92.57
54882;BME280;40775;51.448;4.742;2022-11-13T04:18:53;102411.75;;;8.16;92.82
54882;BME280;40775;51.448;4.742;2022-11-13T04:21:20;102414.38;;;8.16;92.78
54882;BME280;40775;51.448;4.742;2022-11-13T04:23:47;102415.69;;;8.07;92.90
54882;BME280;40775;51.448;4.742;2022-11-13T04:26:14;102418.88;;;8.02;92.72
54882;BME280;40775;51.448;4.742;2022-11-13T04:28:41;102407.84;;;8.07;92.93
54882;BME280;40775;51.448;4.742;2022-11-13T04:31:08;102419.13;;;8.06;92.93
54882;BME280;40775;51.448;4.742;2022-11-13T04:33:35;102404.97;;;8.03;92.93
54882;BME280;40775;51.448;4.742;2022-11-13T04:36:02;102399.91;;;8.06;92.99
54882;BME280;40775;51.448;4.742;2022-11-13T04:38:29;102400.31;;;7.97;92.63
54882;BME280;40775;51.448;4.742;2022-11-13T04:40:57;102384.53;;;7.96;92.67
54882;BME280;40775;51.448;4.742;2022-11-13T04:43:42;102398.22;;;7.92;92.71
54882;BME280;40775;51.448;4.742;2022-11-13T04:46:09;102392.47;;;7.97;92.48
54882;BME280;40775;51.448;4.742;2022-11-13T04:48:36;102397.41;;;7.93;92.98
54882;BME280;40775;51.448;4.742;2022-11-13T04:51:04;102387.50;;;7.87;92.68
54882;BME280;40775;51.448;4.742;2022-11-13T04:53:31;102381.72;;;7.93;93.14
54882;BME280;40775;51.448;4.742;2022-11-13T04:55:58;102377.38;;;7.77;92.49
54882;BME280;40775;51.448;4.742;2022-11-13T04:58:25;102381.44;;;7.72;92.45
54882;BME280;40775;51.448;4.742;2022-11-13T05:00:52;102373.69;;;7.73;92.75
54882;BME280;40775;51.448;4.742;2022-11-13T05:03:19;102378.25;;;7.78;92.77
54882;BME280;40775;51.448;4.742;2022-11-13T05:05:47;102378.09;;;7.74;92.90
54882;BME280;40775;51.448;4.742;2022-11-13T05:08:14;102374.59;;;7.74;92.70
54882;BME280;40775;51.448;4.742;2022-11-13T05:10:41;102370.25;;;7.74;93.12
54882;BME280;40775;51.448;4.742;2022-11-13T05:13:09;102370.59;;;7.81;93.11
54882;BME280;40775;51.448;4.742;2022-11-13T05:15:36;102365.59;;;7.69;92.46
54882;BME280;40775;51.448;4.742;2022-11-13T05:18:03;102366.00;;;7.77;92.88
54882;BME280;40775;51.448;4.742;2022-11-13T05:20:30;102369.91;;;7.68;92.43
54882;BME280;40775;51.448;4.742;2022-11-13T05:22:57;102369.63;;;7.64;92.31
54882;BME280;40775;51.448;4.742;2022-11-13T05:25:24;102367.66;;;7.60;92.21
54882;BME280;40775;51.448;4.742;2022-11-13T05:27:51;102361.59;;;7.75;92.23
54882;BME280;40775;51.448;4.742;2022-11-13T05:30:18;102365.09;;;7.76;92.63
54882;BME280;40775;51.448;4.742;2022-11-13T05:32:45;102354.47;;;7.73;92.30
54882;BME280;40775;51.448;4.742;2022-11-13T05:35:12;102345.44;;;7.83;92.64
54882;BME280;40775;51.448;4.742;2022-11-13T05:37:39;102347.63;;;7.75;92.67
54882;BME280;40775;51.448;4.742;2022-11-13T05:40:07;102354.59;;;7.60;92.04
54882;BME280;40775;51.448;4.742;2022-11-13T05:42:34;102351.56;;;7.52;92.29
54882;BME280;40775;51.448;4.742;2022-11-13T05:45:02;102339.31;;;7.51;92.08
54882;BME280;40775;51.448;4.742;2022-11-13T05:47:29;102336.53;;;7.48;92.02
54882;BME280;40775;51.448;4.742;2022-11-13T05:49:56;102334.63;;;7.46;91.77
54882;BME280;40775;51.448;4.742;2022-11-13T05:52:23;102332.09;;;7.47;92.08
54882;BME280;40775;51.448;4.742;2022-11-13T05:54:50;102335.28;;;7.41;91.75
54882;BME280;40775;51.448;4.742;2022-11-13T05:57:17;102337.06;;;7.42;91.71
54882;BME280;40775;51.448;4.742;2022-11-13T05:59:44;102337.16;;;7.44;91.90
54882;BME280;40775;51.448;4.742;2022-11-13T06:02:11;102327.53;;;7.43;91.70
54882;BME280;40775;51.448;4.742;2022-11-13T06:04:38;102325.81;;;7.43;91.99
54882;BME280;40775;51.448;4.742;2022-11-13T06:07:05;102327.25;;;7.38;91.80
54882;BME280;40775;51.448;4.742;2022-11-13T06:09:33;102323.56;;;7.35;91.40
54882;BME280;40775;51.448;4.742;2022-11-13T06:12:00;102318.25;;;7.33;91.27
54882;BME280;40775;51.448;4.742;2022-11-13T06:14:27;102321.25;;;7.25;91.47
54882;BME280;40775;51.448;4.742;2022-11-13T06:16:56;102323.13;;;7.27;91.28
54882;BME280;40775;51.448;4.742;2022-11-13T06:19:23;102316.09;;;7.26;91.23
54882;BME280;40775;51.448;4.742;2022-11-13T06:21:51;102317.72;;;7.24;91.34
54882;BME280;40775;51.448;4.742;2022-11-13T06:24:18;102315.75;;;7.20;91.06
54882;BME280;40775;51.448;4.742;2022-11-13T06:26:45;102317.22;;;7.15;91.17
54882;BME280;40775;51.448;4.742;2022-11-13T06:29:12;102307.75;;;7.17;91.02
54882;BME280;40775;51.448;4.742;2022-11-13T06:31:40;102309.28;;;7.13;91.18
54882;BME280;40775;51.448;4.742;2022-11-13T06:34:07;102311.25;;;7.18;91.29
54882;BME280;40775;51.448;4.742;2022-11-13T06:36:35;102302.78;;;7.22;91.56
54882;BME280;40775;51.448;4.742;2022-11-13T06:39:07;102299.91;;;7.17;91.36
54882;BME280;40775;51.448;4.742;2022-11-13T06:41:37;102293.97;;;7.20;91.38
54882;BME280;40775;51.448;4.742;2022-11-13T06:44:04;102303.44;;;7.18;91.28
54882;BME280;40775;51.448;4.742;2022-11-13T06:46:31;102297.72;;;7.25;91.58
54882;BME280;40775;51.448;4.742;2022-11-13T06:48:58;102295.41;;;7.15;91.63
54882;BME280;40775;51.448;4.742;2022-11-13T06:51:29;102296.09;;;7.27;91.95
54882;BME280;40775;51.448;4.742;2022-11-13T06:53:57;102301.06;;;7.22;91.62
54882;BME280;40775;51.448;4.742;2022-11-13T06:56:25;102299.09;;;7.18;91.39
54882;BME280;40775;51.448;4.742;2022-11-13T06:58:53;102304.59;;;7.23;91.68
54882;BME280;40775;51.448;4.742;2022-11-13T07:01:24;102299.28;;;7.21;91.69
54882;BME280;40775;51.448;4.742;2022-11-13T07:03:51;102300.09;;;7.20;91.58
54882;BME280;40775;51.448;4.742;2022-11-13T07:06:21;102302.53;;;7.17;91.46
54882;BME280;40775;51.448;4.742;2022-11-13T07:08:49;102298.19;;;7.18;91.79
54882;BME280;40775;51.448;4.742;2022-11-13T07:11:20;102298.28;;;7.19;91.58
54882;BME280;40775;51.448;4.742;2022-11-13T07:13:47;102296.91;;;7.26;92.05
54882;BME280;40775;51.448;4.742;2022-11-13T07:16:16;102300.03;;;7.35;92.03
54882;BME280;40775;51.448;4.742;2022-11-13T07:18:52;102299.50;;;7.40;92.45
54882;BME280;40775;51.448;4.742;2022-11-13T07:21:20;102298.88;;;7.30;92.19
54882;BME280;40775;51.448;4.742;2022-11-13T07:23:48;102296.28;;;7.30;91.84
54882;BME280;40775;51.448;4.742;2022-11-13T07:26:16;102298.25;;;7.34;92.16
54882;BME280;40775;51.448;4.742;2022-11-13T07:28:44;102301.75;;;7.34;92.28
54882;BME280;40775;51.448;4.742;2022-11-13T07:31:13;102301.94;;;7.37;92.10
54882;BME280;40775;51.448;4.742;2022-11-13T07:33:41;102302.81;;;7.38;92.41
54882;BME280;40775;51.448;4.742;2022-11-13T07:36:09;102298.25;;;7.34;92.47
54882;BME280;40775;51.448;4.742;2022-11-13T07:38:39;102304.63;;;7.39;92.42
54882;BME280;40775;51.448;4.742;2022-11-13T07:41:08;102301.94;;;7.37;92.39
54882;BME280;40775;51.448;4.742;2022-11-13T07:43:35;102299.59;;;7.42;92.50
54882;BME280;40775;51.448;4.742;2022-11-13T07:46:03;102298.78;;;7.43;92.38
54882;BME280;40775;51.448;4.742;2022-11-13T07:48:30;102300.41;;;7.41;92.21
54882;BME280;40775;51.448;4.742;2022-11-13T07:51:01;102297.50;;;7.51;92.49
54882;BME280;40775;51.448;4.742;2022-11-13T07:53:28;102310.56;;;7.51;92.43
54882;BME280;40775;51.448;4.742;2022-11-13T07:55:59;102312.78;;;7.60;92.79
54882;BME280;40775;51.448;4.742;2022-11-13T07:58:26;102313.03;;;7.64;92.51
54882;BME280;40775;51.448;4.742;2022-11-13T08:00:54;102312.41;;;7.68;92.63
54882;BME280;40775;51.448;4.742;2022-11-13T08:03:21;102314.53;;;7.75;92.93
54882;BME280;40775;51.448;4.742;2022-11-13T08:05:48;102313.97;;;7.81;92.96
54882;BME280;40775;51.448;4.742;2022-11-13T08:08:15;102304.41;;;7.82;92.62
54882;BME280;40775;51.448;4.742;2022-11-13T08:10:42;102309.16;;;7.89;93.12
54882;BME280;40775;51.448;4.742;2022-11-13T08:13:09;102306.91;;;7.95;93.00
54882;BME280;40775;51.448;4.742;2022-11-13T08:15:37;102299.44;;;8.02;93.31
54882;BME280;40775;51.448;4.742;2022-11-13T08:18:05;102303.94;;;8.05;93.32
54882;BME280;40775;51.448;4.742;2022-11-13T08:20:32;102299.19;;;8.14;93.39
54882;BME280;40775;51.448;4.742;2022-11-13T08:23:01;102302.78;;;8.16;93.41
54882;BME280;40775;51.448;4.742;2022-11-13T08:25:30;102303.31;;;8.25;93.47
54882;BME280;40775;51.448;4.742;2022-11-13T08:27:58;102309.66;;;8.30;93.58
54882;BME280;40775;51.448;4.742;2022-11-13T08:30:26;102302.00;;;8.33;93.35
54882;BME280;40775;51.448;4.742;2022-11-13T08:32:54;102295.63;;;8.45;93.80
54882;BME280;40775;51.448;4.742;2022-11-13T08:35:21;102296.66;;;8.48;93.44
54882;BME280;40775;51.448;4.742;2022-11-13T08:38:05;102306.00;;;8.59;93.67
54882;BME280;40775;51.448;4.742;2022-11-13T08:40:33;102297.47;;;8.63;93.47
54882;BME280;40775;51.448;4.742;2022-11-13T08:43:03;102303.84;;;8.68;93.74
54882;BME280;40775;51.448;4.742;2022-11-13T08:45:30;102297.09;;;8.74;93.46
54882;BME280;40775;51.448;4.742;2022-11-13T08:48:02;102293.94;;;8.79;93.58
54882;BME280;40775;51.448;4.742;2022-11-13T08:50:31;102293.34;;;8.85;93.76
54882;BME280;40775;51.448;4.742;2022-11-13T08:53:00;102292.81;;;8.92;93.56
54882;BME280;40775;51.448;4.742;2022-11-13T08:55:28;102286.69;;;8.91;93.91
54882;BME280;40775;51.448;4.742;2022-11-13T08:57:58;102294.00;;;8.98;94.11
54882;BME280;40775;51.448;4.742;2022-11-13T09:00:28;102297.09;;;9.08;94.23
54882;BME280;40775;51.448;4.742;2022-11-13T09:02:56;102287.91;;;9.16;93.87
54882;BME280;40775;51.448;4.742;2022-11-13T09:05:24;102298.53;;;9.19;93.99
54882;BME280;40775;51.448;4.742;2022-11-13T09:07:59;102287.50;;;9.26;93.83
54882;BME280;40775;51.448;4.742;2022-11-13T09:10:27;102283.56;;;9.34;93.66
54882;BME280;40775;51.448;4.742;2022-11-13T09:12:59;102282.13;;;9.41;93.62
54882;BME280;40775;51.448;4.742;2022-11-13T09:15:29;102279.94;;;9.50;93.91
54882;BME280;40775;51.448;4.742;2022-11-13T09:17:58;102281.59;;;9.48;93.89
54882;BME280;40775;51.448;4.742;2022-11-13T09:20:30;102281.03;;;9.55;93.99
54882;BME280;40775;51.448;4.742;2022-11-13T09:22:59;102279.47;;;9.58;93.77
54882;BME280;40775;51.448;4.742;2022-11-13T09:25:28;102267.50;;;9.64;93.57
54882;BME280;40775;51.448;4.742;2022-11-13T09:28:04;102261.63;;;9.69;93.58
54882;BME280;40775;51.448;4.742;2022-11-13T09:30:31;102261.22;;;9.79;93.41
54882;BME280;40775;51.448;4.742;2022-11-13T09:32:59;102262.69;;;9.92;93.40
54882;BME280;40775;51.448;4.742;2022-11-13T09:35:28;102264.34;;;9.90;93.71
54882;BME280;40775;51.448;4.742;2022-11-13T09:38:11;102266.41;;;9.97;93.70
54882;BME280;40775;51.448;4.742;2022-11-13T09:41:00;102259.38;;;10.15;93.39
54882;BME280;40775;51.448;4.742;2022-11-13T09:46:05;102249.50;;;10.29;93.77
54882;BME280;40775;51.448;4.742;2022-11-13T09:48:39;102257.59;;;10.34;93.63
54882;BME280;40775;51.448;4.742;2022-11-13T09:51:19;102248.19;;;10.39;93.82
54882;BME280;40775;51.448;4.742;2022-11-13T09:53:46;102249.38;;;10.45;93.89
54882;BME280;40775;51.448;4.742;2022-11-13T09:56:38;102240.78;;;10.49;93.13
54882;BME280;40775;51.448;4.742;2022-11-13T10:06:42;102237.72;;;10.80;93.43
54882;BME280;40775;51.448;4.742;2022-11-13T10:12:14;102243.63;;;10.96;92.82
54882;BME280;40775;51.448;4.742;2022-11-13T10:14:45;102237.19;;;10.89;92.84
54882;BME280;40775;51.448;4.742;2022-11-13T10:17:33;102238.22;;;10.93;92.52
54882;BME280;40775;51.448;4.742;2022-11-13T10:20:13;102226.44;;;11.04;92.41
54882;BME280;40775;51.448;4.742;2022-11-13T10:22:53;102237.38;;;11.14;92.62
54882;BME280;40775;51.448;4.742;2022-11-13T10:25:25;102229.66;;;11.19;91.83
54882;BME280;40775;51.448;4.742;2022-11-13T10:27:59;102228.97;;;11.23;92.33
54882;BME280;40775;51.448;4.742;2022-11-13T10:30:41;102218.88;;;11.34;91.92
54882;BME280;40775;51.448;4.742;2022-11-13T10:33:18;102229.63;;;11.40;91.67
54882;BME280;40775;51.448;4.742;2022-11-13T10:38:47;102219.59;;;11.52;91.62
54882;BME280;40775;51.448;4.742;2022-11-13T10:41:19;102217.25;;;11.60;90.89
54882;BME280;40775;51.448;4.742;2022-11-13T10:44:06;102207.09;;;11.70;91.02
54882;BME280;40775;51.448;4.742;2022-11-13T10:46:43;102207.16;;;11.72;91.13
54882;BME280;40775;51.448;4.742;2022-11-13T10:49:25;102205.00;;;11.83;90.61
54882;BME280;40775;51.448;4.742;2022-11-13T10:51:57;102192.56;;;11.79;90.09
54882;BME280;40775;51.448;4.742;2022-11-13T10:54:29;102186.84;;;11.90;90.04
54882;BME280;40775;51.448;4.742;2022-11-13T10:57:05;102182.78;;;12.00;90.00
54882;BME280;40775;51.448;4.742;2022-11-13T10:59:44;102179.38;;;12.02;89.72
54882;BME280;40775;51.448;4.742;2022-11-13T11:02:18;102172.72;;;12.12;89.65
54882;BME280;40775;51.448;4.742;2022-11-13T11:04:46;102160.59;;;12.17;90.12
54882;BME280;40775;51.448;4.742;2022-11-13T11:07:15;102166.66;;;12.15;89.87
54882;BME280;40775;51.448;4.742;2022-11-13T11:09:48;102160.59;;;12.17;89.49
54882;BME280;40775;51.448;4.742;2022-11-13T11:12:22;102158.28;;;12.26;89.57
54882;BME280;40775;51.448;4.742;2022-11-13T11:15:14;102153.84;;;12.25;89.65
54882;BME280;40775;51.448;4.742;2022-11-13T11:18:02;102144.22;;;12.26;89.62
54882;BME280;40775;51.448;4.742;2022-11-13T11:20:54;102137.25;;;12.28;89.74
54882;BME280;40775;51.448;4.742;2022-11-13T11:27:02;102131.50;;;12.38;90.23
54882;BME280;40775;51.448;4.742;2022-11-13T11:29:43;102126.41;;;12.44;90.47
54882;BME280;40775;51.448;4.742;2022-11-13T11:32:36;102133.78;;;12.54;90.08
54882;BME280;40775;51.448;4.742;2022-11-13T11:35:22;102133.03;;;12.58;90.11
54882;BME280;40775;51.448;4.742;2022-11-13T11:38:09;102127.06;;;12.64;89.93
54882;BME280;40775;51.448;4.742;2022-11-13T11:40:45;102119.28;;;12.67;89.57
54882;BME280;40775;51.448;4.742;2022-11-13T11:43:41;102113.28;;;12.73;88.80
54882;BME280;40775;51.448;4.742;2022-11-13T11:46:13;102107.38;;;12.80;88.88
54882;BME280;40775;51.448;4.742;2022-11-13T11:48:43;102103.38;;;12.92;88.47
54882;BME280;40775;51.448;4.742;2022-11-13T11:51:57;102096.56;;;12.99;87.80
54882;BME280;40775;51.448;4.742;2022-11-13T11:54:47;102088.91;;;13.08;87.15
54882;BME280;40775;51.448;4.742;2022-11-13T12:00:52;102077.06;;;13.22;86.24
54882;BME280;40775;51.448;4.742;2022-11-13T12:06:44;102070.63;;;13.43;86.28
54882;BME280;40775;51.448;4.742;2022-11-13T12:18:10;102051.81;;;13.62;84.36
54882;BME280;40775;51.448;4.742;2022-11-13T12:26:45;102031.19;;;13.80;83.90
54882;BME280;40775;51.448;4.742;2022-11-13T12:35:24;102014.94;;;13.98;83.70
54882;BME280;40775;51.448;4.742;2022-11-13T12:44:26;101997.63;;;14.11;84.14
54882;BME280;40775;51.448;4.742;2022-11-13T12:46:55;101993.34;;;14.16;83.68
54882;BME280;40775;51.448;4.742;2022-11-13T12:52:17;101977.66;;;14.22;83.68
54882;BME280;40775;51.448;4.742;2022-11-13T12:54:44;101975.00;;;14.22;83.16
54882;BME280;40775;51.448;4.742;2022-11-13T12:59:57;101975.03;;;14.23;82.60
54882;BME280;40775;51.448;4.742;2022-11-13T13:02:57;101965.47;;;14.27;82.66
54882;BME280;40775;51.448;4.742;2022-11-13T13:08:55;101949.69;;;14.30;81.76
54882;BME280;40775;51.448;4.742;2022-11-13T13:14:53;101939.19;;;14.33;82.75
54882;BME280;40775;51.448;4.742;2022-11-13T13:17:24;101943.63;;;14.36;83.52
54882;BME280;40775;51.448;4.742;2022-11-13T13:20:28;101939.25;;;14.36;84.08
54882;BME280;40775;51.448;4.742;2022-11-13T13:22:57;101935.72;;;14.36;83.23
54882;BME280;40775;51.448;4.742;2022-11-13T13:25:35;101934.03;;;14.39;82.84
54882;BME280;40775;51.448;4.742;2022-11-13T13:42:29;101908.69;;;14.47;82.93
54882;BME280;40775;51.448;4.742;2022-11-13T13:45:20;101908.72;;;14.49;82.60
54882;BME280;40775;51.448;4.742;2022-11-13T13:47:54;101914.09;;;14.52;81.83
54882;BME280;40775;51.448;4.742;2022-11-13T13:50:28;101900.81;;;14.50;81.34
54882;BME280;40775;51.448;4.742;2022-11-13T13:52:57;101905.31;;;14.53;80.65
54882;BME280;40775;51.448;4.742;2022-11-13T13:55:32;101904.34;;;14.51;80.45
54882;BME280;40775;51.448;4.742;2022-11-13T13:58:06;101895.53;;;14.50;80.62
54882;BME280;40775;51.448;4.742;2022-11-13T14:00:35;101901.81;;;14.54;80.62
54882;BME280;40775;51.448;4.742;2022-11-13T14:03:21;101893.88;;;14.54;80.68
54882;BME280;40775;51.448;4.742;2022-11-13T14:05:48;101894.75;;;14.53;80.75
54882;BME280;40775;51.448;4.742;2022-11-13T14:08:18;101893.75;;;14.49;80.58
54882;BME280;40775;51.448;4.742;2022-11-13T14:10:45;101891.16;;;14.51;80.45
54882;BME280;40775;51.448;4.742;2022-11-13T14:13:14;101886.75;;;14.51;80.21
54882;BME280;40775;51.448;4.742;2022-11-13T14:15:47;101883.19;;;14.49;80.05
54882;BME280;40775;51.448;4.742;2022-11-13T14:18:16;101881.41;;;14.48;80.60
54882;BME280;40775;51.448;4.742;2022-11-13T14:20:55;101887.56;;;14.47;80.10
54882;BME280;40775;51.448;4.742;2022-11-13T14:23:34;101885.78;;;14.46;80.47
54882;BME280;40775;51.448;4.742;2022-11-13T14:26:03;101883.19;;;14.49;80.71
54882;BME280;40775;51.448;4.742;2022-11-13T14:28:40;101884.81;;;14.43;80.74
54882;BME280;40775;51.448;4.742;2022-11-13T14:31:11;101879.44;;;14.40;80.75
54882;BME280;40775;51.448;4.742;2022-11-13T14:33:47;101873.22;;;14.38;80.76
54882;BME280;40775;51.448;4.742;2022-11-13T14:36:26;101874.03;;;14.34;81.26
54882;BME280;40775;51.448;4.742;2022-11-13T14:38:56;101859.94;;;14.33;80.70
54882;BME280;40775;51.448;4.742;2022-11-13T14:41:34;101860.81;;;14.34;80.54